Time;durP1;ratioP1;P1;durP2;ratioP2;P2;SDS_P1;SDS_P2;PMS_P1;PMS_P2;Temp;Humidity;BMP_temperature;BMP_pressure;BME280_temperature;BME280_humidity;BME280_pressure;Samples;Min_cycle;Max_cycle;Signal;HPM_P1;HPM_P2
2023/05/06 00:02:25;;;;;;;13.32;11.55;;;;;;;;;;5026765;28;20053;-74
2023/05/06 00:04:50;;;;;;;13.07;11.10;;;;;;;;;;5027293;28;20116;-74
2023/05/06 00:07:16;;;;;;;12.48;11.18;;;;;;;;;;5026798;28;20040;-74
2023/05/06 00:09:41;;;;;;;12.27;11.13;;;;;;;;;;5024899;28;20037;-74
2023/05/06 00:12:07;;;;;;;12.02;10.75;;;;;;;;;;5027289;28;20068;-75
2023/05/06 00:14:33;;;;;;;15.88;11.27;;;;;;;;;;5008470;28;20041;-74
2023/05/06 00:16:58;;;;;;;12.80;11.50;;;;;;;;;;5025930;28;20191;-74
2023/05/06 00:19:24;;;;;;;12.27;10.93;;;;;;;;;;5027236;28;20483;-74
2023/05/06 00:21:49;;;;;;;12.10;10.85;;;;;;;;;;4976886;28;20065;-74
2023/05/06 00:24:15;;;;;;;12.50;10.88;;;;;;;;;;5009576;28;20044;-74
2023/05/06 00:26:40;;;;;;;13.02;11.15;;;;;;;;;;5023657;28;20587;-74
2023/05/06 00:29:06;;;;;;;13.25;11.85;;;;;;;;;;4992373;28;20052;-74
2023/05/06 00:31:31;;;;;;;16.05;11.15;;;;;;;;;;5007745;28;20033;-74
2023/05/06 00:33:57;;;;;;;11.50;10.38;;;;;;;;;;5009230;28;20506;-74
2023/05/06 00:36:22;;;;;;;14.57;11.25;;;;;;;;;;5007421;28;20029;-74
2023/05/06 00:38:48;;;;;;;14.13;11.73;;;;;;;;;;4993731;28;20045;-74
2023/05/06 00:41:14;;;;;;;15.70;12.35;;;;;;;;;;5026647;28;20033;-74
2023/05/06 00:43:39;;;;;;;15.15;12.15;;;;;;;;;;5008657;28;20034;-74
2023/05/06 00:46:08;;;;;;;16.08;12.32;;;;;;;;;;5007245;28;20033;-74
2023/05/06 00:48:35;;;;;;;14.25;12.75;;;;;;;;;;5008179;28;20104;-74
2023/05/06 00:51:00;;;;;;;16.25;12.93;;;;;;;;;;4988488;28;20033;-74
2023/05/06 00:53:26;;;;;;;17.90;13.00;;;;;;;;;;5007535;28;20181;-74
2023/05/06 00:55:52;;;;;;;14.63;13.02;;;;;;;;;;5022983;28;20206;-74
2023/05/06 00:58:19;;;;;;;14.60;12.48;;;;;;;;;;5008059;28;20044;-74
2023/05/06 01:00:45;;;;;;;13.35;11.93;;;;;;;;;;5008382;28;20033;-74
2023/05/06 01:03:10;;;;;;;19.55;13.38;;;;;;;;;;5025009;28;20038;-74
2023/05/06 01:06:06;;;;;;;16.45;12.93;;;;;;;;;;5025805;28;20410;-74
2023/05/06 01:08:44;;;;;;;20.30;12.98;;;;;;;;;;4990887;28;20049;-74
2023/05/06 01:11:23;;;;;;;14.82;12.40;;;;;;;;;;5022912;28;20219;-74
2023/05/06 01:14:03;;;;;;;14.68;11.50;;;;;;;;;;4991290;28;20048;-74
2023/05/06 01:16:32;;;;;;;14.60;11.60;;;;;;;;;;5007446;28;20041;-74
2023/05/06 01:18:59;;;;;;;12.70;11.45;;;;;;;;;;5005948;28;20059;-74
2023/05/06 01:21:33;;;;;;;14.40;11.35;;;;;;;;;;5026181;28;20037;-74
2023/05/06 01:23:59;;;;;;;16.48;12.82;;;;;;;;;;5024201;28;20043;-74
2023/05/06 01:26:25;;;;;;;12.80;11.35;;;;;;;;;;5022906;28;20049;-74
2023/05/06 01:28:51;;;;;;;13.32;10.95;;;;;;;;;;5025190;28;20084;-74
2023/05/06 01:31:39;;;;;;;15.00;13.02;;;;;;;;;;5005251;28;20045;-74
2023/05/06 01:34:22;;;;;;;12.18;11.02;;;;;;;;;;5002550;28;20099;-74
2023/05/06 01:37:09;;;;;;;12.65;11.55;;;;;;;;;;5024534;28;20110;-74
2023/05/06 01:39:37;;;;;;;11.70;10.60;;;;;;;;;;5006554;28;20037;-74
2023/05/06 01:42:04;;;;;;;12.20;11.05;;;;;;;;;;5021014;28;20636;-74
2023/05/06 01:44:32;;;;;;;12.10;10.77;;;;;;;;;;5005572;28;20053;-74
2023/05/06 01:46:59;;;;;;;12.73;11.47;;;;;;;;;;5007503;28;20120;-74
2023/05/06 01:49:26;;;;;;;12.45;10.25;;;;;;;;;;5005058;28;20033;-74
2023/05/06 01:51:52;;;;;;;9.93;9.00;;;;;;;;;;5024033;28;20037;-74
2023/05/06 01:54:18;;;;;;;9.45;8.63;;;;;;;;;;5007561;28;20052;-74
2023/05/06 01:56:43;;;;;;;8.93;8.23;;;;;;;;;;5025232;28;20524;-74
2023/05/06 01:59:09;;;;;;;13.35;8.40;;;;;;;;;;5007296;28;20084;-74
2023/05/06 02:01:34;;;;;;;10.68;8.40;;;;;;;;;;4989674;28;20030;-74
2023/05/06 02:04:00;;;;;;;8.63;7.93;;;;;;;;;;5006617;28;20029;-74
2023/05/06 02:06:26;;;;;;;8.02;7.35;;;;;;;;;;5007509;28;20667;-74
2023/05/06 02:08:52;;;;;;;12.82;11.05;;;;;;;;;;5005800;28;20040;-74
2023/05/06 02:11:21;;;;;;;14.57;12.43;;;;;;;;;;4988712;28;20048;-74
2023/05/06 02:13:49;;;;;;;14.15;10.95;;;;;;;;;;5003433;28;20124;-73
2023/05/06 02:16:14;;;;;;;20.13;12.57;;;;;;;;;;4990190;28;20534;-74
2023/05/06 02:18:40;;;;;;;12.88;11.57;;;;;;;;;;5005274;28;20587;-74
2023/05/06 02:21:08;;;;;;;12.23;10.25;;;;;;;;;;4979530;28;20045;-74
2023/05/06 02:23:35;;;;;;;10.25;9.27;;;;;;;;;;5006472;28;20120;-74
2023/05/06 02:26:00;;;;;;;9.20;8.30;;;;;;;;;;5024413;28;20045;-74
2023/05/06 02:28:26;;;;;;;9.88;8.98;;;;;;;;;;4989848;28;20034;-74
2023/05/06 02:30:56;;;;;;;10.07;9.13;;;;;;;;;;5022025;28;20041;-74
2023/05/06 02:33:22;;;;;;;9.38;8.48;;;;;;;;;;5005283;28;20103;-74
2023/05/06 02:35:48;;;;;;;8.70;7.95;;;;;;;;;;5006470;28;20067;-74
2023/05/06 02:38:15;;;;;;;9.15;8.30;;;;;;;;;;5006226;28;20033;-74
2023/05/06 02:40:41;;;;;;;9.73;8.93;;;;;;;;;;5002745;28;20046;-74
2023/05/06 02:43:06;;;;;;;9.05;8.10;;;;;;;;;;5024618;28;20143;-74
2023/05/06 02:45:33;;;;;;;8.35;7.70;;;;;;;;;;5005501;28;20029;-74
2023/05/06 02:47:58;;;;;;;9.57;8.00;;;;;;;;;;4988598;28;20045;-74
2023/05/06 02:50:24;;;;;;;9.05;8.20;;;;;;;;;;5007325;28;20068;-74
2023/05/06 02:52:50;;;;;;;9.07;8.27;;;;;;;;;;5005971;28;20089;-74
2023/05/06 02:55:15;;;;;;;9.75;8.75;;;;;;;;;;5024907;28;20069;-74
2023/05/06 02:57:41;;;;;;;8.52;7.82;;;;;;;;;;5005551;28;20042;-74
2023/05/06 03:00:09;;;;;;;9.25;8.55;;;;;;;;;;5022117;28;20083;-74
2023/05/06 03:02:35;;;;;;;9.35;8.63;;;;;;;;;;4993519;28;20038;-74
2023/05/06 03:05:03;;;;;;;8.40;7.78;;;;;;;;;;4994732;28;20029;-74
2023/05/06 03:07:30;;;;;;;8.48;7.63;;;;;;;;;;4994582;28;20082;-74
2023/05/06 03:09:56;;;;;;;8.75;7.88;;;;;;;;;;5007852;28;20152;-74
2023/05/06 03:12:22;;;;;;;8.73;7.95;;;;;;;;;;5010188;28;20049;-74
2023/05/06 03:14:48;;;;;;;8.13;7.53;;;;;;;;;;4993641;28;20091;-74
2023/05/06 03:17:14;;;;;;;8.57;7.88;;;;;;;;;;4991608;28;20421;-74
2023/05/06 03:19:39;;;;;;;9.32;8.52;;;;;;;;;;4994018;28;20069;-74
2023/05/06 03:22:07;;;;;;;10.05;9.23;;;;;;;;;;5010385;28;20045;-73
2023/05/06 03:24:35;;;;;;;8.63;7.95;;;;;;;;;;5010066;28;20486;-74
2023/05/06 03:27:03;;;;;;;12.50;8.38;;;;;;;;;;5009152;28;20045;-74
2023/05/06 03:29:29;;;;;;;8.63;7.97;;;;;;;;;;4992596;28;20040;-74
2023/05/06 03:31:55;;;;;;;10.45;8.85;;;;;;;;;;5010100;28;20615;-74
2023/05/06 03:34:21;;;;;;;9.35;8.55;;;;;;;;;;5027429;28;20045;-74
2023/05/06 03:36:47;;;;;;;33.38;9.68;;;;;;;;;;5025450;28;20041;-73
2023/05/06 03:39:14;;;;;;;48.15;9.40;;;;;;;;;;5026068;28;20037;-74
2023/05/06 03:41:40;;;;;;;28.40;8.60;;;;;;;;;;5009118;28;20041;-73
2023/05/06 03:44:07;;;;;;;15.15;7.95;;;;;;;;;;5008924;28;20069;-74
2023/05/06 03:46:32;;;;;;;34.15;8.50;;;;;;;;;;5006731;28;20613;-73
2023/05/06 03:49:01;;;;;;;10.77;8.25;;;;;;;;;;5009555;28;20244;-73
2023/05/06 03:51:27;;;;;;;57.00;10.68;;;;;;;;;;5025671;28;20034;-73
2023/05/06 03:53:54;;;;;;;75.82;9.48;;;;;;;;;;5007727;28;20041;-73
2023/05/06 03:56:21;;;;;;;24.60;7.53;;;;;;;;;;5008745;28;20742;-73
2023/05/06 03:58:48;;;;;;;72.13;8.98;;;;;;;;;;5008435;28;20164;-73
2023/05/06 04:01:16;;;;;;;12.73;7.70;;;;;;;;;;5009421;28;20045;-73
2023/05/06 04:03:41;;;;;;;31.27;7.85;;;;;;;;;;5006535;28;20476;-73
2023/05/06 04:06:07;;;;;;;18.35;8.43;;;;;;;;;;5011096;28;20049;-73
2023/05/06 04:08:32;;;;;;;18.25;7.90;;;;;;;;;;5026199;28;20128;-74
2023/05/06 04:11:06;;;;;;;9.55;8.55;;;;;;;;;;5005413;28;20045;-73
2023/05/06 04:13:34;;;;;;;9.40;8.27;;;;;;;;;;5022854;28;20132;-74
2023/05/06 04:16:04;;;;;;;10.02;9.02;;;;;;;;;;5007054;28;20030;-73
2023/05/06 04:18:38;;;;;;;9.88;8.95;;;;;;;;;;5008470;28;20520;-73
2023/05/06 04:21:09;;;;;;;9.55;8.60;;;;;;;;;;5003070;28;20666;-73
2023/05/06 04:23:37;;;;;;;9.43;8.63;;;;;;;;;;5004911;28;20029;-73
2023/05/06 04:26:03;;;;;;;10.57;8.98;;;;;;;;;;5008682;28;20037;-73
2023/05/06 04:28:31;;;;;;;9.98;9.02;;;;;;;;;;5024355;28;20040;-73
2023/05/06 04:30:57;;;;;;;9.95;9.00;;;;;;;;;;5006277;28;20042;-72
2023/05/06 04:33:31;;;;;;;9.32;8.52;;;;;;;;;;5005818;28;20048;-73
2023/05/06 04:35:59;;;;;;;9.68;8.77;;;;;;;;;;5007549;28;20127;-74
2023/05/06 04:38:29;;;;;;;9.98;8.52;;;;;;;;;;5005998;28;20123;-73
2023/05/06 04:40:55;;;;;;;9.50;8.63;;;;;;;;;;5008749;28;20060;-73
2023/05/06 04:43:21;;;;;;;9.60;8.70;;;;;;;;;;4991938;28;20111;-73
2023/05/06 04:45:51;;;;;;;9.30;8.60;;;;;;;;;;5006139;28;20534;-73
2023/05/06 04:48:22;;;;;;;27.30;8.07;;;;;;;;;;4993970;28;20128;-73
2023/05/06 04:50:49;;;;;;;10.63;7.50;;;;;;;;;;5008792;28;20049;-73
2023/05/06 04:53:15;;;;;;;8.18;7.55;;;;;;;;;;5008442;28;20095;-73
2023/05/06 04:55:42;;;;;;;32.83;8.45;;;;;;;;;;5023127;28;20029;-72
2023/05/06 04:58:08;;;;;;;8.10;7.40;;;;;;;;;;4988675;28;20042;-73
2023/05/06 05:00:34;;;;;;;20.00;7.50;;;;;;;;;;5033044;28;20041;-72
2023/05/06 05:03:01;;;;;;;9.10;6.88;;;;;;;;;;5006387;28;20160;-73
2023/05/06 05:05:27;;;;;;;8.73;7.30;;;;;;;;;;5007832;28;20132;-72
2023/05/06 05:07:55;;;;;;;8.77;7.13;;;;;;;;;;5008257;28;21137;-72
2023/05/06 05:10:22;;;;;;;7.53;6.95;;;;;;;;;;5005557;28;20040;-74
2023/05/06 05:12:49;;;;;;;14.60;6.57;;;;;;;;;;4999536;28;20038;-72
2023/05/06 05:15:14;;;;;;;7.47;6.70;;;;;;;;;;5008483;28;20087;-72
2023/05/06 05:17:40;;;;;;;6.88;6.25;;;;;;;;;;5007831;28;20038;-72
2023/05/06 05:20:07;;;;;;;42.95;7.78;;;;;;;;;;5005633;28;20049;-72
2023/05/06 05:22:33;;;;;;;44.13;8.20;;;;;;;;;;5006518;28;20523;-72
2023/05/06 05:24:59;;;;;;;21.67;7.70;;;;;;;;;;5007629;28;20033;-72
2023/05/06 05:27:26;;;;;;;87.93;8.48;;;;;;;;;;5007467;28;20045;-72
2023/05/06 05:29:53;;;;;;;18.85;7.43;;;;;;;;;;5005036;28;20143;-72
2023/05/06 05:32:20;;;;;;;53.15;8.80;;;;;;;;;;4991094;28;20038;-73
2023/05/06 05:34:46;;;;;;;66.80;8.60;;;;;;;;;;5007360;28;20246;-73
2023/05/06 05:37:12;;;;;;;17.98;7.65;;;;;;;;;;5004044;28;20740;-71
2023/05/06 05:39:38;;;;;;;7.80;7.05;;;;;;;;;;4990852;28;20034;-72
2023/05/06 05:42:04;;;;;;;9.23;7.10;;;;;;;;;;5007597;28;20029;-73
2023/05/06 05:44:33;;;;;;;8.00;7.07;;;;;;;;;;5007158;28;20048;-73
2023/05/06 05:46:58;;;;;;;22.48;7.57;;;;;;;;;;5022100;28;20475;-72
2023/05/06 05:49:24;;;;;;;9.13;7.80;;;;;;;;;;5022688;28;20167;-72
2023/05/06 05:51:52;;;;;;;53.30;8.05;;;;;;;;;;5007149;28;20033;-72
2023/05/06 05:54:19;;;;;;;15.45;7.43;;;;;;;;;;5006694;28;20148;-73
2023/05/06 05:56:45;;;;;;;20.15;7.82;;;;;;;;;;5007168;28;20187;-72
2023/05/06 05:59:11;;;;;;;60.53;7.57;;;;;;;;;;5004548;28;20041;-73
2023/05/06 06:01:37;;;;;;;33.55;7.75;;;;;;;;;;5005834;28;20400;-72
2023/05/06 06:04:04;;;;;;;45.88;7.78;;;;;;;;;;5005147;28;20049;-73
2023/05/06 06:06:30;;;;;;;128.55;10.57;;;;;;;;;;4991398;28;20041;-73
2023/05/06 06:08:57;;;;;;;36.28;7.75;;;;;;;;;;5022453;28;20171;-73
2023/05/06 06:11:25;;;;;;;101.47;10.63;;;;;;;;;;4989094;28;20056;-72
2023/05/06 06:13:51;;;;;;;69.85;9.07;;;;;;;;;;4992599;28;20038;-72
2023/05/06 06:16:17;;;;;;;36.40;7.80;;;;;;;;;;5008191;28;20037;-72
2023/05/06 06:18:43;;;;;;;53.47;7.55;;;;;;;;;;5023060;28;20136;-71
2023/05/06 06:21:08;;;;;;;7.70;6.90;;;;;;;;;;5024938;28;20048;-72
2023/05/06 06:23:34;;;;;;;10.25;7.53;;;;;;;;;;5006824;28;20041;-72
2023/05/06 06:26:02;;;;;;;11.15;7.35;;;;;;;;;;5003111;28;20045;-73
2023/05/06 06:28:27;;;;;;;14.77;7.78;;;;;;;;;;5005303;28;20033;-73
2023/05/06 06:30:53;;;;;;;28.80;7.90;;;;;;;;;;5004902;28;20041;-72
2023/05/06 06:33:18;;;;;;;26.17;8.02;;;;;;;;;;5002736;28;20054;-72
2023/05/06 06:35:44;;;;;;;16.73;7.35;;;;;;;;;;5005719;28;20067;-72
2023/05/06 06:38:10;;;;;;;26.27;7.78;;;;;;;;;;5003594;28;20042;-73
2023/05/06 06:40:35;;;;;;;7.57;6.97;;;;;;;;;;5020078;28;20071;-72
2023/05/06 06:43:01;;;;;;;7.78;7.07;;;;;;;;;;5022045;28;20044;-73
2023/05/06 06:45:48;;;;;;;7.53;6.93;;;;;;;;;;4987676;28;20049;-72
2023/05/06 06:48:13;;;;;;;7.22;6.63;;;;;;;;;;5003402;28;20132;-74
2023/05/06 06:50:39;;;;;;;7.35;6.75;;;;;;;;;;5021561;28;20116;-72
2023/05/06 06:53:05;;;;;;;6.88;6.38;;;;;;;;;;5018773;28;20056;-73
2023/05/06 06:55:30;;;;;;;6.35;5.95;;;;;;;;;;5022115;28;20037;-73
2023/05/06 06:57:56;;;;;;;6.40;5.90;;;;;;;;;;5021240;28;20038;-74
2023/05/06 07:00:22;;;;;;;6.28;5.78;;;;;;;;;;5017767;28;20037;-73
2023/05/06 07:02:48;;;;;;;5.82;5.25;;;;;;;;;;5005793;28;20048;-73
2023/05/06 07:05:14;;;;;;;5.85;5.35;;;;;;;;;;5021576;28;20087;-73
2023/05/06 07:07:39;;;;;;;5.10;4.80;;;;;;;;;;5002117;28;20132;-73
2023/05/06 07:10:05;;;;;;;5.55;5.05;;;;;;;;;;5020679;28;20587;-73
2023/05/06 07:12:31;;;;;;;4.90;4.50;;;;;;;;;;5023758;28;20052;-73
2023/05/06 07:14:56;;;;;;;5.95;5.45;;;;;;;;;;5023896;28;20038;-74
2023/05/06 07:17:22;;;;;;;6.10;5.40;;;;;;;;;;5016956;28;20037;-73
2023/05/06 07:19:47;;;;;;;5.63;5.10;;;;;;;;;;5023348;28;20030;-73
2023/05/06 07:22:13;;;;;;;5.80;5.30;;;;;;;;;;5023261;28;20029;-73
2023/05/06 07:24:39;;;;;;;5.80;5.25;;;;;;;;;;5022488;28;20048;-73
2023/05/06 07:27:05;;;;;;;5.53;5.07;;;;;;;;;;5026561;28;20068;-72
2023/05/06 07:29:30;;;;;;;6.88;5.20;;;;;;;;;;5007356;28;20484;-72
2023/05/06 07:31:56;;;;;;;5.43;4.95;;;;;;;;;;5021126;28;20037;-72
2023/05/06 07:34:22;;;;;;;5.55;5.10;;;;;;;;;;5019885;28;20041;-73
2023/05/06 07:36:47;;;;;;;5.13;4.72;;;;;;;;;;5021986;28;20041;-72
2023/05/06 07:39:13;;;;;;;5.10;4.70;;;;;;;;;;5021538;28;20419;-73
2023/05/06 07:41:39;;;;;;;5.57;5.07;;;;;;;;;;5019692;28;20128;-73
2023/05/06 07:44:05;;;;;;;4.93;4.53;;;;;;;;;;5022402;28;20117;-73
2023/05/06 07:46:31;;;;;;;5.03;4.60;;;;;;;;;;5023348;28;20059;-73
2023/05/06 07:48:56;;;;;;;5.03;4.68;;;;;;;;;;5025700;28;20868;-72
2023/05/06 07:51:22;;;;;;;5.40;5.00;;;;;;;;;;5022137;28;20171;-72
2023/05/06 07:53:47;;;;;;;5.03;4.63;;;;;;;;;;5025730;28;20079;-73
2023/05/06 07:56:13;;;;;;;4.95;4.55;;;;;;;;;;5025861;28;20042;-74
2023/05/06 07:58:39;;;;;;;4.53;4.13;;;;;;;;;;5026234;28;20112;-73
2023/05/06 08:01:05;;;;;;;4.47;4.07;;;;;;;;;;5024615;28;20044;-73
2023/05/06 08:03:30;;;;;;;3.83;3.53;;;;;;;;;;5026061;28;20037;-72
2023/05/06 08:05:56;;;;;;;4.97;3.72;;;;;;;;;;5025919;28;20116;-73
2023/05/06 08:08:26;;;;;;;4.00;3.70;;;;;;;;;;5023306;28;20041;-73
2023/05/06 08:10:53;;;;;;;3.55;3.35;;;;;;;;;;5028228;28;20029;-74
2023/05/06 08:13:18;;;;;;;4.30;3.80;;;;;;;;;;5025656;28;20037;-72
2023/05/06 08:15:44;;;;;;;4.43;4.03;;;;;;;;;;5025968;28;20045;-73
2023/05/06 08:18:10;;;;;;;4.00;3.67;;;;;;;;;;5004356;28;20045;-74
2023/05/06 08:20:35;;;;;;;5.70;4.10;;;;;;;;;;5025451;28;20040;-71
2023/05/06 08:23:01;;;;;;;4.45;4.05;;;;;;;;;;5008447;28;20044;-71
2023/05/06 08:25:26;;;;;;;4.60;4.30;;;;;;;;;;5024102;28;20037;-73
2023/05/06 08:27:52;;;;;;;4.10;3.80;;;;;;;;;;5025770;28;20041;-72
2023/05/06 08:30:17;;;;;;;4.75;4.00;;;;;;;;;;5025750;28;20107;-71
2023/05/06 08:32:43;;;;;;;5.97;3.80;;;;;;;;;;5025114;28;20091;-72
2023/05/06 08:35:09;;;;;;;5.95;3.70;;;;;;;;;;5024297;28;20393;-72
2023/05/06 08:37:34;;;;;;;4.18;3.88;;;;;;;;;;5025537;28;20084;-73
2023/05/06 08:40:00;;;;;;;4.50;4.20;;;;;;;;;;5025680;28;20048;-71
2023/05/06 08:42:29;;;;;;;4.85;4.28;;;;;;;;;;5022400;28;20040;-71
2023/05/06 08:44:55;;;;;;;6.60;4.38;;;;;;;;;;5023580;28;20064;-72
2023/05/06 08:47:22;;;;;;;4.55;4.15;;;;;;;;;;5026035;28;20033;-72
2023/05/06 08:49:48;;;;;;;4.70;4.30;;;;;;;;;;5023416;28;20060;-72
2023/05/06 08:52:13;;;;;;;4.07;3.78;;;;;;;;;;5008098;28;20452;-73
2023/05/06 08:54:40;;;;;;;4.85;4.00;;;;;;;;;;5026042;28;20074;-74
2023/05/06 08:57:09;;;;;;;3.90;3.60;;;;;;;;;;5026007;28;20385;-75
2023/05/06 08:59:36;;;;;;;3.92;3.63;;;;;;;;;;5023574;28;20041;-72
2023/05/06 09:02:03;;;;;;;3.97;3.70;;;;;;;;;;5007739;28;20713;-71
2023/05/06 09:04:30;;;;;;;3.90;3.60;;;;;;;;;;5025992;28;20131;-71
2023/05/06 09:06:57;;;;;;;100.82;13.15;;;;;;;;;;5024702;28;20410;-72
2023/05/06 09:09:23;;;;;;;6.13;3.38;;;;;;;;;;5023255;28;20620;-72
2023/05/06 09:11:52;;;;;;;30.13;5.95;;;;;;;;;;5025385;28;20064;-71
2023/05/06 09:14:19;;;;;;;;;;;;;;;;;;5025977;28;20235;-72
2023/05/06 09:16:46;;;;;;;9.60;3.08;;;;;;;;;;5024826;28;20380;-72
2023/05/06 09:19:13;;;;;;;25.15;6.68;;;;;;;;;;5005105;28;20056;-72
2023/05/06 09:21:41;;;;;;;5.15;3.40;;;;;;;;;;5020764;28;20504;-72
2023/05/06 09:24:08;;;;;;;3.75;3.20;;;;;;;;;;5021965;28;20045;-72
2023/05/06 09:26:36;;;;;;;5.43;2.85;;;;;;;;;;5019430;28;20090;-73
2023/05/06 09:29:03;;;;;;;3.45;3.25;;;;;;;;;;5024841;28;20030;-73
2023/05/06 09:31:29;;;;;;;6.80;3.60;;;;;;;;;;5024896;28;20898;-71
2023/05/06 09:33:58;;;;;;;4.05;3.75;;;;;;;;;;5025623;28;20034;-72
2023/05/06 09:36:26;;;;;;;4.03;3.63;;;;;;;;;;5024718;28;20102;-71
2023/05/06 09:38:55;;;;;;;3.92;3.50;;;;;;;;;;5026477;28;20101;-71
2023/05/06 09:41:24;;;;;;;3.92;3.63;;;;;;;;;;5007441;28;20813;-70
2023/05/06 09:43:50;;;;;;;;;;;;;;;;;;5023430;28;20103;-72
2023/05/06 09:46:16;;;;;;;3.60;3.33;;;;;;;;;;5024977;28;19913;-71
2023/05/06 09:48:42;;;;;;;3.80;3.55;;;;;;;;;;5024765;28;20056;-71
2023/05/06 09:51:07;;;;;;;3.70;3.47;;;;;;;;;;5023648;28;20084;-70
2023/05/06 09:53:37;;;;;;;4.00;3.70;;;;;;;;;;5024395;28;20061;-72
2023/05/06 09:56:05;;;;;;;5.50;3.63;;;;;;;;;;5025656;28;20164;-74
2023/05/06 09:58:31;;;;;;;5.40;4.13;;;;;;;;;;5024869;28;20041;-71
2023/05/06 10:00:57;;;;;;;3.70;3.50;;;;;;;;;;5024545;28;20148;-71
2023/05/06 10:03:24;;;;;;;3.97;3.67;;;;;;;;;;5023796;28;20026;-71
2023/05/06 10:05:51;;;;;;;3.45;3.25;;;;;;;;;;5025174;28;20092;-72
2023/05/06 10:08:17;;;;;;;3.80;3.50;;;;;;;;;;5021545;28;20079;-71
2023/05/06 10:10:45;;;;;;;3.50;3.30;;;;;;;;;;5023964;28;20033;-71
2023/05/06 10:13:12;;;;;;;3.75;3.45;;;;;;;;;;5006687;28;20524;-72
2023/05/06 10:15:38;;;;;;;3.95;3.50;;;;;;;;;;5022052;28;20407;-73
2023/05/06 10:18:06;;;;;;;3.60;3.40;;;;;;;;;;5024710;28;20037;-71
2023/05/06 10:20:34;;;;;;;3.45;3.17;;;;;;;;;;4990980;28;20113;-72
2023/05/06 10:23:31;;;;;;;3.38;3.17;;;;;;;;;;5025384;28;20048;-72
2023/05/06 10:26:02;;;;;;;3.00;2.90;;;;;;;;;;5021287;28;20049;-71
2023/05/06 10:28:28;;;;;;;3.05;2.90;;;;;;;;;;5019539;28;20906;-72
2023/05/06 10:30:56;;;;;;;3.78;3.13;;;;;;;;;;5024606;28;20208;-72
2023/05/06 10:33:24;;;;;;;3.00;2.90;;;;;;;;;;5024773;28;20029;-72
2023/05/06 10:36:11;;;;;;;4.97;3.10;;;;;;;;;;5024318;28;20515;-71
2023/05/06 10:38:42;;;;;;;2.95;2.85;;;;;;;;;;5021131;28;20029;-72
2023/05/06 10:41:30;;;;;;;3.17;2.97;;;;;;;;;;5025032;28;20069;-72
2023/05/06 10:43:59;;;;;;;3.20;3.00;;;;;;;;;;5024251;28;20441;-73
2023/05/06 10:46:29;;;;;;;3.00;2.90;;;;;;;;;;4992898;28;20061;-72
2023/05/06 10:49:07;;;;;;;2.80;2.70;;;;;;;;;;5006009;28;20044;-73
2023/05/06 10:51:35;;;;;;;8.50;3.50;;;;;;;;;;5006697;28;20038;-72
2023/05/06 10:54:08;;;;;;;3.10;2.90;;;;;;;;;;5024237;28;20144;-72
2023/05/06 10:56:35;;;;;;;3.30;3.10;;;;;;;;;;5021916;28;20623;-73
2023/05/06 10:59:08;;;;;;;3.10;2.80;;;;;;;;;;5024443;28;20448;-73
2023/05/06 11:01:42;;;;;;;2.97;2.78;;;;;;;;;;5006444;28;20052;-72
2023/05/06 11:04:12;;;;;;;3.45;3.25;;;;;;;;;;5023943;28;20037;-72
2023/05/06 11:06:40;;;;;;;2.75;2.65;;;;;;;;;;5022055;28;20151;-72
2023/05/06 11:09:17;;;;;;;3.05;2.85;;;;;;;;;;5023601;28;20671;-73
2023/05/06 11:12:05;;;;;;;4.18;2.65;;;;;;;;;;5004826;28;20556;-74
2023/05/06 11:14:35;;;;;;;3.25;2.95;;;;;;;;;;5006337;28;20056;-72
2023/05/06 11:17:03;;;;;;;3.20;2.97;;;;;;;;;;5022901;28;20072;-72
2023/05/06 11:19:31;;;;;;;3.35;3.15;;;;;;;;;;5019135;28;20523;-73
2023/05/06 11:21:58;;;;;;;3.30;3.10;;;;;;;;;;5023107;28;20750;-73
2023/05/06 11:24:28;;;;;;;3.15;2.95;;;;;;;;;;5027827;28;20508;-73
2023/05/06 11:26:54;;;;;;;3.40;3.20;;;;;;;;;;5027311;28;20079;-72
2023/05/06 11:29:21;;;;;;;3.33;3.20;;;;;;;;;;5005826;28;20728;-76
2023/05/06 11:31:47;;;;;;;3.40;3.20;;;;;;;;;;5030812;28;20087;-76
2023/05/06 11:34:27;;;;;;;3.28;3.03;;;;;;;;;;5012328;28;20716;-74
2023/05/06 11:37:01;;;;;;;4.57;3.17;;;;;;;;;;4996021;28;20106;-75
2023/05/06 11:39:31;;;;;;;3.25;3.05;;;;;;;;;;4979984;28;20056;-72
2023/05/06 11:42:10;;;;;;;3.10;2.90;;;;;;;;;;5014898;28;20040;-73
2023/05/06 11:44:38;;;;;;;3.15;2.95;;;;;;;;;;5018147;28;20060;-72
2023/05/06 11:47:06;;;;;;;3.47;3.20;;;;;;;;;;4993400;28;20535;-72
2023/05/06 11:49:36;;;;;;;3.33;3.13;;;;;;;;;;5001753;28;20428;-73
2023/05/06 11:52:02;;;;;;;3.60;3.40;;;;;;;;;;5033187;28;20034;-75
2023/05/06 11:54:27;;;;;;;3.53;3.33;;;;;;;;;;5013176;28;20048;-72
2023/05/06 11:56:55;;;;;;;3.40;3.20;;;;;;;;;;4998257;28;20501;-73
2023/05/06 11:59:33;;;;;;;3.87;3.67;;;;;;;;;;4980223;28;20069;-74
2023/05/06 12:02:01;;;;;;;3.70;3.40;;;;;;;;;;5026300;28;20041;-73
2023/05/06 12:04:35;;;;;;;3.65;3.40;;;;;;;;;;5007647;28;20026;-74
2023/05/06 12:07:01;;;;;;;3.65;3.38;;;;;;;;;;5027263;28;20044;-74
2023/05/06 12:09:27;;;;;;;3.55;3.35;;;;;;;;;;5026987;28;20045;-76
2023/05/06 12:11:53;;;;;;;4.25;3.85;;;;;;;;;;5024486;28;20029;-74
2023/05/06 12:14:19;;;;;;;106.50;15.05;;;;;;;;;;5025316;28;20046;-73
2023/05/06 12:16:45;;;;;;;44.65;7.53;;;;;;;;;;5026843;28;20036;-75
2023/05/06 12:19:11;;;;;;;38.75;7.20;;;;;;;;;;5026617;28;20037;-74
2023/05/06 12:21:37;;;;;;;67.40;10.43;;;;;;;;;;5023252;28;20040;-74
2023/05/06 12:24:03;;;;;;;95.15;11.98;;;;;;;;;;5026260;28;20033;-74
2023/05/06 12:26:41;;;;;;;4.78;4.13;;;;;;;;;;5026445;28;20095;-73
2023/05/06 12:29:09;;;;;;;133.88;15.98;;;;;;;;;;5024256;28;20037;-74
2023/05/06 12:31:36;;;;;;;16.45;4.30;;;;;;;;;;5006271;28;20132;-73
2023/05/06 12:34:03;;;;;;;4.35;3.65;;;;;;;;;;5008416;28;20045;-73
2023/05/06 12:36:28;;;;;;;3.80;3.60;;;;;;;;;;5026170;28;20116;-72
2023/05/06 12:38:56;;;;;;;4.28;4.03;;;;;;;;;;5023172;28;20145;-72
2023/05/06 12:41:23;;;;;;;5.97;4.15;;;;;;;;;;5008490;28;20476;-74
2023/05/06 12:43:51;;;;;;;3.75;3.45;;;;;;;;;;5026136;28;20030;-74
2023/05/06 12:46:17;;;;;;;4.35;4.05;;;;;;;;;;5024498;28;20049;-74
2023/05/06 12:49:03;;;;;;;3.97;3.78;;;;;;;;;;5023656;28;20745;-75
2023/05/06 12:51:32;;;;;;;3.80;3.60;;;;;;;;;;5005667;28;20141;-74
2023/05/06 12:53:57;;;;;;;3.75;3.53;;;;;;;;;;5005014;28;20116;-74
2023/05/06 12:56:23;;;;;;;4.00;3.70;;;;;;;;;;5023886;28;20123;-74
2023/05/06 12:59:14;;;;;;;3.92;3.70;;;;;;;;;;5025312;28;20420;-73
2023/05/06 13:01:40;;;;;;;3.90;3.70;;;;;;;;;;5019562;28;20872;-74
2023/05/06 13:04:05;;;;;;;3.60;3.40;;;;;;;;;;5025870;28;20039;-75
2023/05/06 13:06:31;;;;;;;3.55;3.22;;;;;;;;;;5022319;28;20037;-74
2023/05/06 13:08:57;;;;;;;3.67;3.40;;;;;;;;;;5025777;28;20039;-74
2023/05/06 13:11:24;;;;;;;3.60;3.30;;;;;;;;;;5025636;28;20468;-74
2023/05/06 13:13:50;;;;;;;3.58;3.38;;;;;;;;;;5023813;28;20041;-73
2023/05/06 13:16:15;;;;;;;4.20;3.90;;;;;;;;;;5025071;28;20041;-74
2023/05/06 13:18:41;;;;;;;3.80;3.60;;;;;;;;;;5023536;28;20673;-74
2023/05/06 13:21:06;;;;;;;3.90;3.70;;;;;;;;;;5021711;28;20056;-74
2023/05/06 13:23:33;;;;;;;4.15;3.75;;;;;;;;;;5023010;28;20040;-74
2023/05/06 13:26:01;;;;;;;4.03;3.72;;;;;;;;;;5025258;28;20481;-73
2023/05/06 13:28:27;;;;;;;4.03;3.83;;;;;;;;;;5025359;28;20508;-74
2023/05/06 13:30:52;;;;;;;4.07;3.78;;;;;;;;;;5025209;28;20041;-74
2023/05/06 13:33:18;;;;;;;3.90;3.63;;;;;;;;;;5023685;28;20038;-74
2023/05/06 13:35:44;;;;;;;3.95;3.63;;;;;;;;;;5025306;28;20025;-74
2023/05/06 13:38:09;;;;;;;3.95;3.70;;;;;;;;;;5025126;28;20127;-73
2023/05/06 13:40:35;;;;;;;3.70;3.50;;;;;;;;;;5023449;28;20036;-76
2023/05/06 13:43:00;;;;;;;3.53;3.33;;;;;;;;;;5024919;28;20204;-75
2023/05/06 13:45:26;;;;;;;3.80;3.50;;;;;;;;;;5024177;28;20128;-76
2023/05/06 13:47:51;;;;;;;3.78;3.40;;;;;;;;;;5024901;28;20111;-73
2023/05/06 13:50:17;;;;;;;3.75;3.55;;;;;;;;;;5028886;28;20480;-76
2023/05/06 13:52:42;;;;;;;3.60;3.40;;;;;;;;;;5032150;28;20048;-74
2023/05/06 13:55:08;;;;;;;3.63;3.42;;;;;;;;;;5007765;28;20040;-74
2023/05/06 13:57:35;;;;;;;3.67;3.38;;;;;;;;;;5020085;28;20040;-76
2023/05/06 14:00:01;;;;;;;3.40;3.30;;;;;;;;;;5027814;28;20060;-73
2023/05/06 14:02:26;;;;;;;3.47;3.17;;;;;;;;;;5008000;28;20091;-73
2023/05/06 14:04:52;;;;;;;3.63;3.45;;;;;;;;;;5026385;28;20029;-75
2023/05/06 14:07:17;;;;;;;4.00;3.80;;;;;;;;;;5033943;28;20060;-76
2023/05/06 14:09:43;;;;;;;3.90;3.70;;;;;;;;;;5006981;28;20079;-75
2023/05/06 14:12:08;;;;;;;3.97;3.78;;;;;;;;;;5025108;28;20037;-74
2023/05/06 14:14:34;;;;;;;3.72;3.42;;;;;;;;;;5023563;28;20046;-77
2023/05/06 14:17:00;;;;;;;3.70;3.50;;;;;;;;;;5024286;28;20043;-76
2023/05/06 14:19:25;;;;;;;3.95;3.67;;;;;;;;;;5020847;28;20440;-74
2023/05/06 14:21:51;;;;;;;3.35;3.15;;;;;;;;;;5024504;28;20033;-74
2023/05/06 14:24:16;;;;;;;3.58;3.40;;;;;;;;;;5024021;28;20033;-74
2023/05/06 14:26:44;;;;;;;3.70;3.50;;;;;;;;;;5023648;28;20037;-76
2023/05/06 14:29:10;;;;;;;3.60;3.40;;;;;;;;;;4988815;28;20140;-76
2023/05/06 14:31:36;;;;;;;4.22;3.92;;;;;;;;;;5025014;28;20565;-73
2023/05/06 14:34:01;;;;;;;3.70;3.50;;;;;;;;;;5021875;28;20048;-72
2023/05/06 14:36:27;;;;;;;3.55;3.33;;;;;;;;;;5025039;28;20049;-73
2023/05/06 14:38:52;;;;;;;3.60;3.40;;;;;;;;;;5025062;28;20056;-73